sensor_id;sensor_type;location;lat;lon;timestamp;temperature;humidity
1524;DHT22;755;53.658;10.118;2023-04-01T00:04:17;10.00;99.90
1524;DHT22;755;53.658;10.118;2023-04-01T00:14:19;9.90;99.90
1524;DHT22;755;53.658;10.118;2023-04-01T00:24:22;9.90;99.90
1524;DHT22;755;53.658;10.118;2023-04-01T00:34:24;9.90;99.90
1524;DHT22;755;53.658;10.118;2023-04-01T00:44:32;9.80;99.90
1524;DHT22;755;53.658;10.118;2023-04-01T00:54:36;9.80;99.90
1524;DHT22;755;53.658;10.118;2023-04-01T01:04:40;9.80;99.90
1524;DHT22;755;53.658;10.118;2023-04-01T01:25:17;9.70;99.90
1524;DHT22;755;53.658;10.118;2023-04-01T01:35:32;9.70;99.90
1524;DHT22;755;53.658;10.118;2023-04-01T01:45:35;9.60;99.90
1524;DHT22;755;53.658;10.118;2023-04-01T01:55:42;9.70;99.90
1524;DHT22;755;53.658;10.118;2023-04-01T02:05:45;9.60;99.90
1524;DHT22;755;53.658;10.118;2023-04-01T02:15:50;9.50;99.90
1524;DHT22;755;53.658;10.118;2023-04-01T02:25:56;9.50;99.90
1524;DHT22;755;53.658;10.118;2023-04-01T02:35:59;9.50;99.90
1524;DHT22;755;53.658;10.118;2023-04-01T02:46:01;9.50;99.90
1524;DHT22;755;53.658;10.118;2023-04-01T02:56:05;9.40;99.90
1524;DHT22;755;53.658;10.118;2023-04-01T03:06:08;9.40;99.90
1524;DHT22;755;53.658;10.118;2023-04-01T03:16:13;9.40;99.90
1524;DHT22;755;53.658;10.118;2023-04-01T03:26:15;9.40;99.90
1524;DHT22;755;53.658;10.118;2023-04-01T03:36:19;9.30;99.90
1524;DHT22;755;53.658;10.118;2023-04-01T03:46:21;9.30;99.90
1524;DHT22;755;53.658;10.118;2023-04-01T03:56:24;9.30;99.90
1524;DHT22;755;53.658;10.118;2023-04-01T04:06:27;9.30;99.90
1524;DHT22;755;53.658;10.118;2023-04-01T04:16:31;9.40;99.90
1524;DHT22;755;53.658;10.118;2023-04-01T04:26:33;9.30;99.90
1524;DHT22;755;53.658;10.118;2023-04-01T04:36:36;9.30;99.90
1524;DHT22;755;53.658;10.118;2023-04-01T04:46:38;9.30;99.90
1524;DHT22;755;53.658;10.118;2023-04-01T04:56:42;8.50;99.90
1524;DHT22;755;53.658;10.118;2023-04-01T05:06:44;8.10;99.90
1524;DHT22;755;53.658;10.118;2023-04-01T05:16:47;7.80;99.90
1524;DHT22;755;53.658;10.118;2023-04-01T05:26:50;7.50;99.90
1524;DHT22;755;53.658;10.118;2023-04-01T05:36:53;7.40;99.90
1524;DHT22;755;53.658;10.118;2023-04-01T05:46:55;7.30;99.90
1524;DHT22;755;53.658;10.118;2023-04-01T05:56:58;7.10;99.90
1524;DHT22;755;53.658;10.118;2023-04-01T06:07:00;7.00;99.90
1524;DHT22;755;53.658;10.118;2023-04-01T06:17:17;6.80;99.90
1524;DHT22;755;53.658;10.118;2023-04-01T06:27:32;6.60;99.90
1524;DHT22;755;53.658;10.118;2023-04-01T06:38:06;6.60;99.90
1524;DHT22;755;53.658;10.118;2023-04-01T06:48:28;6.40;99.90
1524;DHT22;755;53.658;10.118;2023-04-01T06:58:37;6.50;99.90
1524;DHT22;755;53.658;10.118;2023-04-01T07:08:43;6.30;99.90
1524;DHT22;755;53.658;10.118;2023-04-01T07:18:50;6.20;99.90
1524;DHT22;755;53.658;10.118;2023-04-01T07:28:54;6.20;99.90
1524;DHT22;755;53.658;10.118;2023-04-01T07:39:06;6.20;99.90
1524;DHT22;755;53.658;10.118;2023-04-01T07:49:15;6.10;99.90
1524;DHT22;755;53.658;10.118;2023-04-01T07:59:28;6.10;99.90
1524;DHT22;755;53.658;10.118;2023-04-01T08:09:43;6.00;99.90
1524;DHT22;755;53.658;10.118;2023-04-01T08:20:17;6.00;99.90
1524;DHT22;755;53.658;10.118;2023-04-01T08:31:02;6.20;99.90
1524;DHT22;755;53.658;10.118;2023-04-01T08:41:32;6.00;99.90
1524;DHT22;755;53.658;10.118;2023-04-01T09:13:12;6.10;99.90
1524;DHT22;755;53.658;10.118;2023-04-01T09:23:34;6.10;99.90
1524;DHT22;755;53.658;10.118;2023-04-01T09:44:33;6.10;99.90
1524;DHT22;755;53.658;10.118;2023-04-01T09:54:52;6.20;99.90
1524;DHT22;755;53.658;10.118;2023-04-01T10:38:18;6.20;99.90
1524;DHT22;755;53.658;10.118;2023-04-01T10:48:35;6.40;99.90
1524;DHT22;755;53.658;10.118;2023-04-01T10:59:07;6.30;99.90
1524;DHT22;755;53.658;10.118;2023-04-01T11:09:39;6.20;99.90
1524;DHT22;755;53.658;10.118;2023-04-01T11:30:29;6.20;99.90
1524;DHT22;755;53.658;10.118;2023-04-01T11:40:38;6.10;99.90
1524;DHT22;755;53.658;10.118;2023-04-01T11:50:58;6.00;99.90
1524;DHT22;755;53.658;10.118;2023-04-01T12:01:20;5.90;99.90
1524;DHT22;755;53.658;10.118;2023-04-01T12:11:32;5.90;99.90
1524;DHT22;755;53.658;10.118;2023-04-01T12:21:37;5.90;99.90
1524;DHT22;755;53.658;10.118;2023-04-01T12:31:51;6.10;99.90
1524;DHT22;755;53.658;10.118;2023-04-01T12:41:59;6.10;99.90
1524;DHT22;755;53.658;10.118;2023-04-01T12:52:09;5.80;99.90
1524;DHT22;755;53.658;10.118;2023-04-01T13:02:14;5.70;99.90
1524;DHT22;755;53.658;10.118;2023-04-01T13:12:35;5.70;99.90
1524;DHT22;755;53.658;10.118;2023-04-01T13:22:51;5.90;99.90
1524;DHT22;755;53.658;10.118;2023-04-01T13:33:02;5.70;99.90
1524;DHT22;755;53.658;10.118;2023-04-01T13:43:12;5.60;99.90
1524;DHT22;755;53.658;10.118;2023-04-01T13:53:31;5.60;99.90
1524;DHT22;755;53.658;10.118;2023-04-01T14:03:54;5.60;99.90
1524;DHT22;755;53.658;10.118;2023-04-01T14:14:05;5.40;99.90
1524;DHT22;755;53.658;10.118;2023-04-01T14:24:23;5.40;99.90
1524;DHT22;755;53.658;10.118;2023-04-01T14:34:41;5.30;99.90
1524;DHT22;755;53.658;10.118;2023-04-01T14:44:56;5.20;99.90
1524;DHT22;755;53.658;10.118;2023-04-01T14:55:01;5.30;99.90
1524;DHT22;755;53.658;10.118;2023-04-01T15:05:13;5.30;99.90
1524;DHT22;755;53.658;10.118;2023-04-01T15:15:27;5.30;99.90
1524;DHT22;755;53.658;10.118;2023-04-01T15:25:43;5.20;99.90
1524;DHT22;755;53.658;10.118;2023-04-01T15:35:53;5.10;99.90
1524;DHT22;755;53.658;10.118;2023-04-01T15:56:55;5.00;99.90
1524;DHT22;755;53.658;10.118;2023-04-01T16:07:10;4.90;99.90
1524;DHT22;755;53.658;10.118;2023-04-01T16:17:43;4.90;99.90
1524;DHT22;755;53.658;10.118;2023-04-01T16:27:53;4.70;99.90
1524;DHT22;755;53.658;10.118;2023-04-01T16:38:01;4.60;99.90
1524;DHT22;755;53.658;10.118;2023-04-01T16:48:11;4.60;99.90
1524;DHT22;755;53.658;10.118;2023-04-01T16:58:21;4.50;99.90
1524;DHT22;755;53.658;10.118;2023-04-01T17:08:35;4.50;99.90
1524;DHT22;755;53.658;10.118;2023-04-01T17:18:47;4.40;99.90
1524;DHT22;755;53.658;10.118;2023-04-01T17:28:52;4.40;67.90
1524;DHT22;755;53.658;10.118;2023-04-01T17:39:22;4.40;99.90
1524;DHT22;755;53.658;10.118;2023-04-01T17:49:31;4.30;99.90
1524;DHT22;755;53.658;10.118;2023-04-01T17:59:39;4.30;99.90
1524;DHT22;755;53.658;10.118;2023-04-01T18:10:00;4.30;99.90
1524;DHT22;755;53.658;10.118;2023-04-01T18:20:21;4.20;99.90
1524;DHT22;755;53.658;10.118;2023-04-01T18:30:29;4.10;99.90
1524;DHT22;755;53.658;10.118;2023-04-01T18:40:35;4.00;99.90
1524;DHT22;755;53.658;10.118;2023-04-01T18:50:41;3.90;28.60
1524;DHT22;755;53.658;10.118;2023-04-01T19:01:00;4.00;99.90
1524;DHT22;755;53.658;10.118;2023-04-01T19:11:08;3.90;1.00
1524;DHT22;755;53.658;10.118;2023-04-01T19:21:16;3.80;1.00
1524;DHT22;755;53.658;10.118;2023-04-01T19:31:32;3.60;99.90
1524;DHT22;755;53.658;10.118;2023-04-01T19:41:40;3.50;1.00
1524;DHT22;755;53.658;10.118;2023-04-01T19:51:50;3.50;99.90
1524;DHT22;755;53.658;10.118;2023-04-01T20:02:00;3.50;1.00
1524;DHT22;755;53.658;10.118;2023-04-01T20:12:11;3.40;23.70
1524;DHT22;755;53.658;10.118;2023-04-01T20:22:52;3.10;1.00
1524;DHT22;755;53.658;10.118;2023-04-01T20:33:36;2.80;99.90
1524;DHT22;755;53.658;10.118;2023-04-01T20:43:57;2.70;99.90
1524;DHT22;755;53.658;10.118;2023-04-01T20:54:14;2.50;99.90
1524;DHT22;755;53.658;10.118;2023-04-01T21:04:27;2.40;99.90
1524;DHT22;755;53.658;10.118;2023-04-01T21:14:46;2.30;99.90
1524;DHT22;755;53.658;10.118;2023-04-01T21:25:01;2.20;99.90
1524;DHT22;755;53.658;10.118;2023-04-01T21:35:08;2.20;99.90
1524;DHT22;755;53.658;10.118;2023-04-01T22:06:43;1.90;1.00
1524;DHT22;755;53.658;10.118;2023-04-01T22:16:52;1.70;99.90
1524;DHT22;755;53.658;10.118;2023-04-01T22:27:03;1.70;99.90
1524;DHT22;755;53.658;10.118;2023-04-01T22:37:15;1.70;99.90
1524;DHT22;755;53.658;10.118;2023-04-01T22:47:26;1.60;99.90
1524;DHT22;755;53.658;10.118;2023-04-01T22:57:41;1.50;99.90
1524;DHT22;755;53.658;10.118;2023-04-01T23:07:54;1.50;1.00
1524;DHT22;755;53.658;10.118;2023-04-01T23:18:09;1.50;90.70
1524;DHT22;755;53.658;10.118;2023-04-01T23:28:41;1.50;1.00
1524;DHT22;755;53.658;10.118;2023-04-01T23:38:47;1.70;99.90
1524;DHT22;755;53.658;10.118;2023-04-01T23:48:52;1.70;52.60
1524;DHT22;755;53.658;10.118;2023-04-01T23:58:56;1.70;99.90
